METAR stanice u blizini

 

LYBE - Beograd / Surčin, Srbija
Ažurirano: 07/12/2019 06:30
Mist, Delimično oblačno
Mist, Delimično oblačno
 Pravac vetra JI
Vetar: JI 9 km/h
Temperatura: 2°C
Osećaj hladnoće: -1°C
Tačka rose: 2°C
Vlažnost: 100%
Pritisak: 1018 hPa
Pregled: Mist
Oblaci: Partly Cloudy
Vidljivost: 3 km
2019/12/07 05:30 LYBE 070530Z 14005KT 3000 BR NSC 02/02 Q1018 NOSIG
LYBT - Beograd / Batajnica, Srbija
Ažurirano: 07/12/2019 06:30
Mist, Delimično oblačno
Mist, Delimično oblačno
 Pravac vetra varies
Vetar: varies 4 km/h
Temperatura: 2°C
Tačka rose: 2°C
Vlažnost: 100%
Pritisak: 1017 hPa
Pregled: Mist
Oblaci: Partly Cloudy
Vidljivost: 3 km
2019/12/07 05:30 LYBT 070530Z VRB02KT 2500 BR NSC 02/02 Q1017 NOSIG
LYVR - Vršac, Srbija
Ažurirano: 07/12/2019 06:30
Vedro
Vedro
 Pravac vetra SI
Vetar: SI 7 km/h
Temperatura: 5°C
Osećaj hladnoće: 3°C
Tačka rose: 2°C
Vlažnost: 81%
Pritisak: 1018 hPa
Pregled: Vedro
Vidljivost: greater than 10 km
2019/12/07 05:30 LYVR 070530Z 05004KT 360V080 CAVOK 05/02 Q1018 NOSIG
 
LYKV - Lađevci, Srbija
Ažurirano: 07/12/2019 06:30
Mist, Few clouds
Mist, Few clouds
 Pravac vetra calm
Vetar: Tišina
Temperatura: 0°C
Tačka rose: 0°C
Vlažnost: 100%
Pritisak: 1019 hPa
Pregled: Mist
Oblaci: Few Clouds
Vidljivost: 3 km
Cloud details: Few Clouds 1219 m
2019/12/07 05:30 LYKV 070530Z 00000KT 3000 BR FEW040 00/00 Q1019 NOSIG
LYNI - Niš, Srbija
Ažurirano: 07/12/2019 06:30
Slaba kiša, Delimično oblačno
Slaba kiša, Delimično oblačno
 Pravac vetra varies
Vetar: varies 2 km/h
Temperatura: 2°C
Tačka rose: 1°C
Vlažnost: 93%
Pritisak: 1019 hPa
Pregled: Light Rain
Oblaci: Partly Cloudy
Vidljivost: 7 km
Cloud details: Partly Cloudy 1219 m
2019/12/07 05:30 LYNI 070530Z VRB01KT 7000 -RA SCT040 02/01 Q1019 NOSIG
BKPR - Priština, Srbija
Ažurirano: 07/12/2019 07:00
Mist, Pretežno oblačno
Mist, Pretežno oblačno
 Pravac vetra calm
Vetar: Tišina
Temperatura: 2°C
Tačka rose: 0°C
Vlažnost: 87%
Pritisak: 1019 hPa
Pregled: Mist
Oblaci: Mostly Cloudy
Vidljivost: 2 km
Cloud details: Partly Cloudy 305 m
Partly Cloudy 1219 m
Mostly Cloudy 2438 m
2019/12/07 06:00 BKPR 070600Z 00000KT 1500 BR SCT010 SCT040 BKN080 02/M00 Q1019 NOSIG RMK 17010095
 
LHPP - Pecs / Pogany, Hungary
Ažurirano: 07/12/2019 06:15
Oblačno
Oblačno
 Pravac vetra IJI
Vetar: IJI 6 km/h
Temperatura: 2°C
Tačka rose: 1°C
Vlažnost: 93%
Pritisak: 1017 hPa
Oblaci: Oblačno
Vidljivost: 6 km
Cloud details: Partly Cloudy 396 m
Oblačno 2530 m
2019/12/07 05:15 LHPP 070515Z 11003KT 6000 SCT013 OVC083 02/01 Q1017
LHUD - Szeged, Hungary
Ažurirano: 04/07/2019 01:45
NOT Current
Vedro
Vedro
 Pravac vetra S
Vetar: S 7 km/h
Temperatura: 18°C
Tačka rose: 13°C
Vlažnost: 73%
Pritisak: 1019 hPa
Pregled: Vedro
Vidljivost: greater than 10 km
2019/07/03 23:45 LHUD 032345Z 35004KT CAVOK 18/13 Q1019
LRTR - Timisoara, Romania
Ažurirano: 07/12/2019 06:30
Mostly Cloudy
Mostly Cloudy
 Pravac vetra IJI
Vetar: IJI 7 km/h
Temperatura: 3°C
Osećaj hladnoće: 1°C
Tačka rose: 2°C
Vlažnost: 93%
Pritisak: 1018 hPa
Oblaci: Mostly Cloudy
Vidljivost: 10 km
Cloud details: Mostly Cloudy 1311 m
2019/12/07 05:30 LRTR 070530Z 12004KT 9999 BKN043 03/02 Q1018
 
LRCV - Craiova, Romania
Ažurirano: 07/12/2019 06:30
Freezing fog, Oblačno
Freezing fog, Oblačno
 Pravac vetra ZJZ
Vetar: ZJZ 4 km/h
Temperatura: -3°C
Tačka rose: -3°C
Vlažnost: 100%
Pritisak: 1017 hPa
Pregled: Freezing Fog
Oblaci: Oblačno
Vidljivost: 1 km
Cloud details: Oblačno 30 m
2019/12/07 05:30 LRCV 070530Z 24002KT 0500 R27/0550N FZFG VV001 M03/M03 Q1017
LBSF - Sofia, Bulgaria
Ažurirano: 07/12/2019 06:30
Oblačno
Oblačno
 Pravac vetra calm
Vetar: Tišina
Temperatura: -3°C
Tačka rose: -4°C
Vlažnost: 93%
Pritisak: 1020 hPa
Oblaci: Oblačno
Vidljivost: 8 km
Cloud details: Oblačno 1676 m
2019/12/07 05:30 LBSF 070530Z 00000KT 8000 OVC055 M03/M04 Q1020 NOSIG
LWSK - Skoplje, Makedonija
Ažurirano: 07/12/2019 06:30
Mist, Delimično oblačno
Mist, Delimično oblačno
 Pravac vetra calm
Vetar: Tišina
Temperatura: 1°C
Tačka rose: 0°C
Vlažnost: 93%
Pritisak: 1021 hPa
Pregled: Mist
Oblaci: Partly Cloudy
Vidljivost: 3 km
Cloud details: Partly Cloudy 2438 m
2019/12/07 05:30 LWSK 070530Z 00000KT 2600 BR SCT080 01/00 Q1021 NOSIG
 
LYPG - Podgorica, Crna Gora
Ažurirano: 07/12/2019 06:30
Slaba kiša, Mist, Oblačno
Slaba kiša, Mist, Oblačno
 Pravac vetra ISI
Vetar: ISI 7 km/h
Temperatura: 9°C
Osećaj hladnoće: 8°C
Tačka rose: 8°C
Vlažnost: 94%
Pritisak: 1019 hPa
Pregled: Slaba kiša, Mist
Oblaci: Oblačno
Vidljivost: 5 km
Cloud details: Few Clouds 213 m
Mostly Cloudy 1219 m
Oblačno 2134 m
2019/12/07 05:30 LYPG 070530Z 06004KT 5000 -RA BR FEW007 BKN040 OVC070 09/08 Q1019 NOSIG
LQSA - Sarajevo, Bosna i Hercegovina
Ažurirano: 07/12/2019 06:30
Mist, Pretežno oblačno
Mist, Pretežno oblačno
 Pravac vetra J
Vetar: J 4 km/h
Temperatura: -1°C
Tačka rose: -1°C
Vlažnost: 100%
Pritisak: 1019 hPa
Pregled: Mist
Oblaci: Mostly Cloudy
Vidljivost: 1 km
Cloud details: Mostly Cloudy 274 m
2019/12/07 05:30 LQSA 070530Z 17002KT 0800 R11/0900N BR BKN009 M01/M01 Q1019 TEMPO 0600 BKN004
LDOS - Osijek, Hrvatksa
Ažurirano: 07/12/2019 06:30
Mist, Oblačno
Mist, Oblačno
 Pravac vetra JI
Vetar: JI 7 km/h
Temperatura: 2°C
Osećaj hladnoće: 0°C
Tačka rose: 1°C
Vlažnost: 93%
Pritisak: 1017 hPa
Pregled: Mist
Oblaci: Oblačno
Vidljivost: 4 km
Cloud details: Few Clouds 305 m
Oblačno 914 m
2019/12/07 05:30 LDOS 070530Z 13004KT 4000 BR FEW010 OVC030 02/01 Q1017